sensor_id;sensor_type;location;lat;lon;timestamp;pressure;altitude;pressure_sealevel;temperature;humidity
61740;BME280;47645;45.288;12.038;2023-02-20T00:01:27;1025.2922659506703;;;8.8623046875;100
61740;BME280;47645;45.288;12.038;2023-02-20T00:11:22;1025.2262653069754;;;9.0;100
61740;BME280;47645;45.288;12.038;2023-02-20T00:21:23;1025.2723563411837;;;8.994921875;100
61740;BME280;47645;45.288;12.038;2023-02-20T00:31:23;1025.3161186814275;;;9.0814453125;100
61740;BME280;47645;45.288;12.038;2023-02-20T00:41:24;1025.4111936425695;;;9.0203125;100
61740;BME280;47645;45.288;12.038;2023-02-20T00:51:24;1025.4748560107612;;;8.9490234375;100
61740;BME280;47645;45.288;12.038;2023-02-20T01:01:25;1025.5427896506417;;;8.91328125;100
61740;BME280;47645;45.288;12.038;2023-02-20T01:11:25;1025.5810166731646;;;9.0509765625;100
61740;BME280;47645;45.288;12.038;2023-02-20T01:21:26;1025.5426883651112;;;9.2548828125;100
61740;BME280;47645;45.288;12.038;2023-02-20T01:31:26;1025.4824145256387;;;9.2955078125;100
61740;BME280;47645;45.288;12.038;2023-02-20T01:41:27;1025.4440137546328;;;8.9388671875;100
61740;BME280;47645;45.288;12.038;2023-02-20T01:51:30;1025.428994472081;;;8.9541015625;100
61740;BME280;47645;45.288;12.038;2023-02-20T02:01:28;1025.488442162758;;;9.01015625;100
61740;BME280;47645;45.288;12.038;2023-02-20T02:11:28;1025.6027373831512;;;9.0814453125;100
61740;BME280;47645;45.288;12.038;2023-02-20T02:21:56;1025.655595934366;;;8.8267578125;100
61740;BME280;47645;45.288;12.038;2023-02-20T02:31:53;1025.7127003220908;;;8.704296875;100
61740;BME280;47645;45.288;12.038;2023-02-20T02:41:36;1025.7081775245852;;;8.4291015625;100
61740;BME280;47645;45.288;12.038;2023-02-20T02:51:34;1025.7481147251442;;;8.3271484375;100
61740;BME280;47645;45.288;12.038;2023-02-20T03:01:32;1025.7368933003909;;;8.0623046875;100
61740;BME280;47645;45.288;12.038;2023-02-20T03:11:33;1025.7863474768292;;;8.0724609375;100
61740;BME280;47645;45.288;12.038;2023-02-20T03:21:33;1025.9054348226753;;;7.93984375;100
61740;BME280;47645;45.288;12.038;2023-02-20T03:31:36;1025.9142539962725;;;8.051953125;100
61740;BME280;47645;45.288;12.038;2023-02-20T03:51:33;1025.9939741813716;;;8.2099609375;100
61740;BME280;47645;45.288;12.038;2023-02-20T04:01:34;1025.9799048977939;;;8.4341796875;100
61740;BME280;47645;45.288;12.038;2023-02-20T04:11:37;1026.1972428249926;;;8.3169921875;100
61740;BME280;47645;45.288;12.038;2023-02-20T04:21:38;1026.2200404547743;;;8.138671875;100
61740;BME280;47645;45.288;12.038;2023-02-20T04:31:35;1026.440769797515;;;8.031640625;100
61740;BME280;47645;45.288;12.038;2023-02-20T04:41:35;1026.4410353086614;;;7.9908203125;100
61740;BME280;47645;45.288;12.038;2023-02-20T04:51:36;1026.4897721897148;;;7.9705078125;100
61740;BME280;47645;45.288;12.038;2023-02-20T05:01:36;1026.4371560521952;;;8.13359375;100
61740;BME280;47645;45.288;12.038;2023-02-20T05:11:37;1026.5743994908005;;;8.14375;100
61740;BME280;47645;45.288;12.038;2023-02-20T05:22:43;1026.4812385663101;;;8.0623046875;100
61740;BME280;47645;45.288;12.038;2023-02-20T05:31:37;1026.493208219032;;;8.041796875;100
61740;BME280;47645;45.288;12.038;2023-02-20T05:41:38;1026.500470537534;;;7.934765625;100
61740;BME280;47645;45.288;12.038;2023-02-20T05:51:38;1026.4789250085748;;;8.1234375;100
61740;BME280;47645;45.288;12.038;2023-02-20T06:01:39;1026.5292002386416;;;8.1029296875;99.53880115845068
61740;BME280;47645;45.288;12.038;2023-02-20T06:11:39;1026.5825949603732;;;8.15390625;96.98912418176512
61740;BME280;47645;45.288;12.038;2023-02-20T06:21:44;1026.7831994823819;;;8.2814453125;95.92193686305801
61740;BME280;47645;45.288;12.038;2023-02-20T06:31:40;1026.8818788217475;;;8.469921875;94.6913663976615
61740;BME280;47645;45.288;12.038;2023-02-20T06:41:40;1026.995420666664;;;8.683984375;93.32025486426745
61740;BME280;47645;45.288;12.038;2023-02-20T06:51:41;1027.0888197334293;;;8.6431640625;91.5120138502219
61740;BME280;47645;45.288;12.038;2023-02-20T07:01:42;1027.120530329586;;;8.9541015625;89.45599744686562
61740;BME280;47645;45.288;12.038;2023-02-20T07:11:42;1027.1706973023631;;;9.2751953125;89.41136823619779
61740;BME280;47645;45.288;12.038;2023-02-20T07:21:45;1027.2510459939035;;;9.4025390625;88.56007397615728
61740;BME280;47645;45.288;12.038;2023-02-20T07:31:43;1027.3312887151594;;;9.540234375;86.78632227004093
61740;BME280;47645;45.288;12.038;2023-02-20T07:41:43;1027.399297662809;;;9.784765625;84.79144847379598
61740;BME280;47645;45.288;12.038;2023-02-20T07:51:44;1027.4856599454747;;;10.075390625;84.96103072497715
61740;BME280;47645;45.288;12.038;2023-02-20T08:01:44;1027.4902341340803;;;10.3251953125;84.08421204931841
61740;BME280;47645;45.288;12.038;2023-02-20T08:11:45;1027.4294658207211;;;10.9978515625;82.19659758753696
61740;BME280;47645;45.288;12.038;2023-02-20T08:21:45;1027.3547813970931;;;11.7828125;80.36802319959915
61740;BME280;47645;45.288;12.038;2023-02-20T08:31:46;1027.42759471403;;;12.440234375;75.91572557929952
61740;BME280;47645;45.288;12.038;2023-02-20T08:41:47;1027.518498322628;;;13.29140625;73.5612097607706
61740;BME280;47645;45.288;12.038;2023-02-20T08:51:51;1027.414693615134;;;13.169140625;71.179096452271
61740;BME280;47645;45.288;12.038;2023-02-20T09:01:48;1027.4962693059097;;;12.771484375;75.68680539100052
61740;BME280;47645;45.288;12.038;2023-02-20T09:11:48;1027.4547765090258;;;13.286328125;73.80692094068522
61740;BME280;47645;45.288;12.038;2023-02-20T09:21:49;1027.428072905153;;;13.607421875;72.88699830287189
61740;BME280;47645;45.288;12.038;2023-02-20T09:31:49;1027.4571691045933;;;14.1578125;70.82733859964975
61740;BME280;47645;45.288;12.038;2023-02-20T09:42:04;1027.3743492148392;;;14.657421875;71.44629143514915
61740;BME280;47645;45.288;12.038;2023-02-20T09:51:54;1027.3274119055886;;;15.2486328125;67.92432757323319
61740;BME280;47645;45.288;12.038;2023-02-20T10:01:55;1027.3165496313977;;;15.4015625;67.3096941515494
61740;BME280;47645;45.288;12.038;2023-02-20T10:12:02;1027.3829985030795;;;15.533984375;65.44153865961496
61740;BME280;47645;45.288;12.038;2023-02-20T10:21:58;1027.4714823953927;;;14.7287109375;67.66514143978938
61740;BME280;47645;45.288;12.038;2023-02-20T10:31:59;1027.453445450716;;;15.2537109375;67.63163639347631
61740;BME280;47645;45.288;12.038;2023-02-20T10:41:59;1027.437012690301;;;15.095703125;66.95761023614037
61740;BME280;47645;45.288;12.038;2023-02-20T10:51:58;1027.3691006578752;;;15.7685546875;63.244864168701355
61740;BME280;47645;45.288;12.038;2023-02-20T11:01:57;1027.235350991162;;;16.028515625;62.016964573858125
61740;BME280;47645;45.288;12.038;2023-02-20T11:11:56;1027.1096697046785;;;16.5177734375;61.0346659503338
61740;BME280;47645;45.288;12.038;2023-02-20T11:21:57;1026.967791777596;;;16.048828125;60.11899431098014
61740;BME280;47645;45.288;12.038;2023-02-20T11:32:16;1026.6541931426218;;;15.931640625;59.977543314700625
61740;BME280;47645;45.288;12.038;2023-02-20T11:42:11;1026.4642822728774;;;17.0529296875;58.88602767245423
61740;BME280;47645;45.288;12.038;2023-02-20T11:52:07;1026.3969562606655;;;16.7828125;56.67570169485852
61740;BME280;47645;45.288;12.038;2023-02-20T12:02:32;1026.303057290882;;;16.3341796875;59.731271909844594
61740;BME280;47645;45.288;12.038;2023-02-20T12:12:00;1026.070209344415;;;16.155859375;60.45148320773959
61740;BME280;47645;45.288;12.038;2023-02-20T12:22:08;1026.003009914551;;;16.680859375;55.73745903815957
61740;BME280;47645;45.288;12.038;2023-02-20T12:32:16;1025.9152603712685;;;17.409765625;56.654624838076586
61740;BME280;47645;45.288;12.038;2023-02-20T12:42:13;1025.8118509586398;;;16.884765625;58.873109550505426
61740;BME280;47645;45.288;12.038;2023-02-20T12:52:11;1025.7648746839616;;;16.9203125;54.74735937176424
61740;BME280;47645;45.288;12.038;2023-02-20T13:02:14;1025.531951041687;;;17.613671875;56.25399431219213
61740;BME280;47645;45.288;12.038;2023-02-20T13:12:12;1025.453722084741;;;17.95;51.37076467737936
61740;BME280;47645;45.288;12.038;2023-02-20T13:22:06;1025.3568595648917;;;17.62890625;54.53939590787578
61740;BME280;47645;45.288;12.038;2023-02-20T13:32:46;1025.2795093423563;;;18.1232421875;61.28430584088226
61740;BME280;47645;45.288;12.038;2023-02-20T13:42:33;1025.241805450357;;;17.95;51.10883244306601
61740;BME280;47645;45.288;12.038;2023-02-20T13:52:30;1025.0100669712806;;;18.1029296875;55.443319119121476
61740;BME280;47645;45.288;12.038;2023-02-20T14:02:16;1024.9470651175948;;;17.93984375;56.8121249079288
61740;BME280;47645;45.288;12.038;2023-02-20T14:12:11;1024.8290997163026;;;17.633984375;57.827605523329204
61740;BME280;47645;45.288;12.038;2023-02-20T14:22:23;1024.7407821615238;;;17.7359375;58.66633069368087
61740;BME280;47645;45.288;12.038;2023-02-20T14:32:13;1024.566784993837;;;17.848046875;58.96620411287395
61740;BME280;47645;45.288;12.038;2023-02-20T14:42:15;1024.4909215562288;;;17.720703125;56.542655691652975
61740;BME280;47645;45.288;12.038;2023-02-20T14:52:17;1024.4737280188335;;;17.4759765625;61.960504989853675
61740;BME280;47645;45.288;12.038;2023-02-20T15:02:16;1024.496924493598;;;17.2416015625;63.26850832234424
61740;BME280;47645;45.288;12.038;2023-02-20T15:12:20;1024.5041219796005;;;17.0376953125;65.7296855762084
61740;BME280;47645;45.288;12.038;2023-02-20T15:22:26;1024.4644841554723;;;16.487109375;69.51792382716663
61740;BME280;47645;45.288;12.038;2023-02-20T15:32:20;1024.4934029297756;;;16.18125;71.6896237950089
61740;BME280;47645;45.288;12.038;2023-02-20T15:42:19;1024.4207656840492;;;15.6359375;73.84840182487558
61740;BME280;47645;45.288;12.038;2023-02-20T15:52:19;1024.4840751038396;;;15.319921875;74.51451413153292
61740;BME280;47645;45.288;12.038;2023-02-20T16:02:21;1024.495861000131;;;15.0650390625;75.73503674802137
61740;BME280;47645;45.288;12.038;2023-02-20T16:12:24;1024.5136423907402;;;14.7388671875;76.89055019272509
61740;BME280;47645;45.288;12.038;2023-02-20T16:22:20;1024.5490841570809;;;14.7134765625;80.82739554922873
61740;BME280;47645;45.288;12.038;2023-02-20T16:32:23;1024.7692326640274;;;14.2904296875;81.48066580087047
61740;BME280;47645;45.288;12.038;2023-02-20T16:42:25;1024.8243551313076;;;13.734765625;84.96090342382438
61740;BME280;47645;45.288;12.038;2023-02-20T16:52:25;1024.7786443032537;;;13.5412109375;86.30680155007538
61740;BME280;47645;45.288;12.038;2023-02-20T17:02:25;1024.7854476359557;;;13.3626953125;86.56554284641702
61740;BME280;47645;45.288;12.038;2023-02-20T17:12:25;1024.8553610801582;;;12.96015625;88.29335288288357
61740;BME280;47645;45.288;12.038;2023-02-20T17:22:25;1024.9030210768472;;;12.4708984375;88.20941628270772
61740;BME280;47645;45.288;12.038;2023-02-20T17:32:25;1024.8868774557393;;;12.333203125;90.44367098600239
61740;BME280;47645;45.288;12.038;2023-02-20T17:42:26;1024.842799576127;;;12.098828125;88.6780791371691
61740;BME280;47645;45.288;12.038;2023-02-20T17:52:26;1024.8490362107443;;;11.803125;91.86624043766787
61740;BME280;47645;45.288;12.038;2023-02-20T18:02:27;1024.8372131596093;;;11.573828125;92.79114270600606
61740;BME280;47645;45.288;12.038;2023-02-20T18:12:28;1024.835035839132;;;11.369921875;92.79832390691486
61740;BME280;47645;45.288;12.038;2023-02-20T18:22:28;1024.7593226605704;;;11.2986328125;93.07303282550508
61740;BME280;47645;45.288;12.038;2023-02-20T18:32:29;1024.7065112422463;;;11.069140625;93.9785174971287
61740;BME280;47645;45.288;12.038;2023-02-20T18:42:29;1024.5978731753833;;;10.7837890625;94.81533931015849
61740;BME280;47645;45.288;12.038;2023-02-20T18:52:30;1024.5628590082808;;;10.6615234375;94.63925903710143
61740;BME280;47645;45.288;12.038;2023-02-20T19:02:30;1024.4719902619318;;;10.4373046875;95.52123113799084
61740;BME280;47645;45.288;12.038;2023-02-20T19:12:31;1024.433956782573;;;10.3302734375;95.74931444210004
61740;BME280;47645;45.288;12.038;2023-02-20T19:22:32;1024.409035024684;;;10.2333984375;95.89236995326392
61740;BME280;47645;45.288;12.038;2023-02-20T19:32:33;1024.3389649243709;;;10.1517578125;96.55516025297922
61740;BME280;47645;45.288;12.038;2023-02-20T19:42:33;1024.278187868815;;;10.075390625;96.69312017862441
61740;BME280;47645;45.288;12.038;2023-02-20T19:52:33;1024.3777398283473;;;9.978515625;96.76141506716621
61740;BME280;47645;45.288;12.038;2023-02-20T20:02:34;1024.3905540040087;;;9.764453125;97.18297241853196
61740;BME280;47645;45.288;12.038;2023-02-20T20:12:50;1024.413795415659;;;9.6013671875;97.50019431567381
61740;BME280;47645;45.288;12.038;2023-02-20T20:22:35;1024.399372262596;;;9.4025390625;98.48973300420315
61740;BME280;47645;45.288;12.038;2023-02-20T20:32:36;1024.2963721750018;;;9.336328125;98.44751629373542
61740;BME280;47645;45.288;12.038;2023-02-20T20:42:36;1024.0782600426624;;;9.234375;98.41275329743803
61740;BME280;47645;45.288;12.038;2023-02-20T20:52:37;1024.0729268884186;;;9.1580078125;98.65369120351616
61740;BME280;47645;45.288;12.038;2023-02-20T21:02:38;1024.0990530344416;;;9.1171875;97.75161405374338
61740;BME280;47645;45.288;12.038;2023-02-20T21:12:39;1024.1181726576588;;;8.9796875;98.29203369706111
61740;BME280;47645;45.288;12.038;2023-02-20T21:22:38;1024.0180946112862;;;8.908203125;98.53158060505835
61740;BME280;47645;45.288;12.038;2023-02-20T21:32:39;1023.9599881117856;;;8.9490234375;97.51064040869686
61740;BME280;47645;45.288;12.038;2023-02-20T21:52:41;1023.850875904701;;;8.704296875;98.69184247384092
